Terminal Aerodrome Forecast
Issued by NWS Brownsville, TX

Home | Current Version | Previous Version | Text Only | Print | Product List | Glossary On
Versions: 1 2 3 4 5 6 7 8 9 10 11 12 13 14
860
FTUS44 KBRO 242340
TAFBRO
TAF
KBRO 242340Z 2500/2524 13014KT P6SM FEW035
     FM250200 14008KT P6SM FEW030
     FM250600 15005KT P6SM FEW025 SCT300
     FM251400 14012KT P6SM SCT035 SCT300
     FM251700 14014G20KT P6SM SCT035 SCT300=

USA.gov is the U.S. government's official web portal to all federal, state and local government web resources and services.